createdAt,value
2023-04-26T00:01:29.916Z,9.31
2023-04-26T00:03:56.620Z,9.30
2023-04-26T00:06:23.335Z,9.10
2023-04-26T00:08:49.925Z,8.97
2023-04-26T00:11:16.430Z,9.06
2023-04-26T00:13:42.787Z,9.25
2023-04-26T00:16:09.304Z,9.08
2023-04-26T00:18:35.742Z,8.21
2023-04-26T00:21:02.699Z,8.73
2023-04-26T00:23:29.104Z,8.94
2023-04-26T00:25:56.953Z,8.79
2023-04-26T00:28:23.435Z,9.08
2023-04-26T00:30:51.094Z,8.74
2023-04-26T00:33:17.420Z,8.59
2023-04-26T00:35:43.745Z,8.54
2023-04-26T00:38:10.173Z,8.48
2023-04-26T00:40:36.645Z,8.65
2023-04-26T00:43:03.485Z,8.75
2023-04-26T00:45:30.416Z,8.04
2023-04-26T00:47:57.205Z,8.60
2023-04-26T00:50:24.375Z,8.46
2023-04-26T00:52:51.193Z,8.85
2023-04-26T00:55:18.761Z,8.35
2023-04-26T00:57:45.931Z,8.25
2023-04-26T01:00:12.923Z,7.88
2023-04-26T01:02:39.502Z,7.73
2023-04-26T01:05:06.655Z,8.40
2023-04-26T01:07:33.484Z,8.30
2023-04-26T01:10:00.336Z,8.65
2023-04-26T01:12:27.010Z,8.49
2023-04-26T01:14:54.256Z,7.52
2023-04-26T01:17:20.712Z,8.11
2023-04-26T01:19:50.991Z,8.00
2023-04-26T01:22:17.734Z,7.93
2023-04-26T01:24:46.574Z,8.26
2023-04-26T01:27:13.012Z,8.31
2023-04-26T01:29:39.548Z,8.16
2023-04-26T01:32:05.915Z,8.08
2023-04-26T01:34:34.359Z,7.96
2023-04-26T01:37:01.517Z,7.94
2023-04-26T01:39:27.984Z,8.24
2023-04-26T01:41:54.330Z,7.88
2023-04-26T01:44:20.813Z,8.07
2023-04-26T01:46:47.257Z,8.05
2023-04-26T01:49:13.730Z,8.00
2023-04-26T01:51:40.197Z,7.99
2023-04-26T01:54:06.545Z,7.99
2023-04-26T01:56:33.010Z,7.85
2023-04-26T01:58:59.552Z,8.01
2023-04-26T02:01:26.079Z,8.07
2023-04-26T02:03:52.844Z,7.72
2023-04-26T02:06:19.618Z,7.96
2023-04-26T02:08:46.144Z,7.88
2023-04-26T02:11:12.585Z,7.82
2023-04-26T02:13:38.919Z,7.71
2023-04-26T02:16:06.129Z,7.41
2023-04-26T02:18:32.507Z,7.56
2023-04-26T02:20:58.861Z,7.58
2023-04-26T02:23:25.400Z,7.02
2023-04-26T02:25:51.971Z,6.98
2023-04-26T02:28:18.430Z,7.60
2023-04-26T02:30:44.929Z,7.23
2023-04-26T02:33:11.538Z,7.02
2023-04-26T02:35:37.914Z,7.08
2023-04-26T02:38:04.614Z,6.55
2023-04-26T02:40:31.015Z,7.41
2023-04-26T02:42:57.584Z,7.23
2023-04-26T02:45:24.026Z,7.48
2023-04-26T02:47:50.458Z,7.32
2023-04-26T02:50:16.908Z,7.40
2023-04-26T02:52:43.310Z,7.36
2023-04-26T02:55:09.986Z,7.46
2023-04-26T02:57:36.665Z,7.11
2023-04-26T03:00:05.394Z,7.09
2023-04-26T03:02:32.340Z,7.35
2023-04-26T03:04:58.957Z,7.33
2023-04-26T03:07:25.838Z,7.25
2023-04-26T03:09:52.188Z,7.01
2023-04-26T03:12:18.625Z,6.98
2023-04-26T03:14:45.025Z,7.13
2023-04-26T03:17:11.904Z,7.31
2023-04-26T03:19:38.260Z,6.90
2023-04-26T03:22:04.725Z,7.13
2023-04-26T03:24:31.683Z,7.33
2023-04-26T03:26:58.126Z,7.09
2023-04-26T03:29:24.516Z,6.67
2023-04-26T03:31:51.179Z,7.06
2023-04-26T03:34:17.645Z,7.02
2023-04-26T03:36:44.119Z,6.90
2023-04-26T03:39:11.344Z,7.00
2023-04-26T03:41:39.479Z,6.88
2023-04-26T03:44:06.128Z,6.92
2023-04-26T03:46:32.591Z,6.98
2023-04-26T03:48:59.017Z,6.74
2023-04-26T03:51:25.477Z,6.36
2023-04-26T03:53:52.142Z,6.51
2023-04-26T03:56:18.511Z,6.85
2023-04-26T03:58:47.005Z,6.86
2023-04-26T04:01:13.617Z,6.22
2023-04-26T04:03:41.260Z,6.03
2023-04-26T04:06:08.068Z,5.88
2023-04-26T04:08:34.436Z,6.74
2023-04-26T04:11:01.555Z,6.15
2023-04-26T04:13:28.185Z,6.83
2023-04-26T04:15:54.680Z,6.23
2023-04-26T04:18:21.250Z,6.02
2023-04-26T04:20:47.622Z,6.76
2023-04-26T04:23:14.146Z,6.21
2023-04-26T04:25:41.026Z,6.74
2023-04-26T04:28:08.560Z,6.05
2023-04-26T04:30:35.615Z,6.70
2023-04-26T04:33:03.457Z,6.50
2023-04-26T04:35:33.882Z,6.91
2023-04-26T04:38:01.611Z,6.62
2023-04-26T04:40:27.982Z,6.23
2023-04-26T04:42:55.509Z,6.71
2023-04-26T04:45:24.445Z,6.73
2023-04-26T04:47:50.894Z,6.78
2023-04-26T04:50:17.550Z,6.05
2023-04-26T04:52:43.985Z,6.64
2023-04-26T04:55:10.549Z,6.12
2023-04-26T04:57:37.174Z,5.87
2023-04-26T05:00:10.320Z,6.74
2023-04-26T05:02:37.461Z,6.24
2023-04-26T05:05:05.161Z,6.85
2023-04-26T05:07:32.435Z,7.08
2023-04-26T05:09:59.587Z,7.23
2023-04-26T05:12:26.706Z,7.07
2023-04-26T05:14:53.197Z,6.09
2023-04-26T05:17:19.765Z,6.51
2023-04-26T05:19:46.237Z,6.54
2023-04-26T05:22:18.211Z,6.85
2023-04-26T05:24:48.087Z,7.54
2023-04-26T05:27:14.797Z,7.70
2023-04-26T05:29:41.666Z,7.73
2023-04-26T05:32:08.424Z,7.73
2023-04-26T05:34:35.142Z,7.78
2023-04-26T05:37:01.502Z,7.76
2023-04-26T05:39:27.874Z,8.02
2023-04-26T05:41:54.392Z,7.37
2023-04-26T05:44:20.919Z,7.30
2023-04-26T05:46:47.463Z,7.27
2023-04-26T05:49:13.961Z,7.77
2023-04-26T05:51:40.628Z,7.60
2023-04-26T05:54:07.515Z,7.79
2023-04-26T05:56:33.993Z,7.88
2023-04-26T05:59:00.326Z,7.75
2023-04-26T06:01:27.599Z,7.95
2023-04-26T06:03:58.083Z,7.90
2023-04-26T06:06:28.561Z,8.27
2023-04-26T06:08:55.497Z,8.17
2023-04-26T06:11:22.238Z,8.29
2023-04-26T06:13:48.713Z,8.46
2023-04-26T06:16:15.538Z,8.42
2023-04-26T06:18:42.289Z,8.22
2023-04-26T06:21:08.771Z,8.00
2023-04-26T06:23:35.188Z,7.89
2023-04-26T06:26:01.730Z,7.97
2023-04-26T06:28:28.062Z,9.00
2023-04-26T06:30:54.593Z,8.78
2023-04-26T06:33:21.048Z,9.16
2023-04-26T06:35:47.383Z,9.28
2023-04-26T06:38:13.834Z,8.93
2023-04-26T06:40:40.315Z,9.45
2023-04-26T06:43:06.717Z,9.42
2023-04-26T06:45:33.257Z,9.26
2023-04-26T06:48:00.803Z,9.69
2023-04-26T06:50:27.726Z,9.36
2023-04-26T06:52:54.480Z,10.00
2023-04-26T06:55:21.276Z,10.15
2023-04-26T06:57:47.672Z,9.86
2023-04-26T07:00:14.604Z,9.94
2023-04-26T07:02:41.374Z,9.75
2023-04-26T07:05:10.948Z,9.86
2023-04-26T07:07:37.603Z,9.87
2023-04-26T07:10:04.290Z,10.60
2023-04-26T07:12:33.082Z,10.43
2023-04-26T07:15:01.288Z,9.89
2023-04-26T07:17:28.053Z,9.68
2023-04-26T07:19:56.056Z,10.00
2023-04-26T07:22:25.017Z,10.23
2023-04-26T07:24:51.517Z,10.63
2023-04-26T07:27:18.029Z,10.11
2023-04-26T07:29:44.490Z,10.36
2023-04-26T07:32:14.142Z,10.63
2023-04-26T07:34:42.323Z,10.27
2023-04-26T07:37:09.168Z,10.16
2023-04-26T07:39:35.565Z,10.29
2023-04-26T07:42:02.918Z,10.86
2023-04-26T07:44:29.395Z,10.14
2023-04-26T07:46:58.194Z,10.95
2023-04-26T07:49:24.720Z,10.52
2023-04-26T07:51:52.097Z,10.17
2023-04-26T07:54:18.610Z,10.82
2023-04-26T07:56:45.062Z,10.99
2023-04-26T07:59:11.618Z,10.65
2023-04-26T08:01:40.641Z,11.09
2023-04-26T08:04:07.358Z,11.14
2023-04-26T08:06:33.988Z,11.20
2023-04-26T08:09:00.413Z,11.12
2023-04-26T08:11:27.137Z,11.12
2023-04-26T08:13:53.873Z,11.90
2023-04-26T08:16:20.761Z,11.49
2023-04-26T08:18:47.845Z,11.35
2023-04-26T08:21:16.643Z,11.55
2023-04-26T08:23:43.295Z,11.31
2023-04-26T08:26:09.799Z,11.52
2023-04-26T08:28:36.247Z,11.03
2023-04-26T08:31:02.672Z,11.91
2023-04-26T08:33:29.386Z,12.18
2023-04-26T08:35:55.905Z,12.17
2023-04-26T08:38:22.794Z,11.97
2023-04-26T08:40:51.202Z,12.62
2023-04-26T08:43:17.749Z,12.06
2023-04-26T08:45:46.989Z,12.92
2023-04-26T08:48:23.233Z,12.40
2023-04-26T08:50:50.701Z,11.63
2023-04-26T08:53:18.925Z,12.66
2023-04-26T08:55:49.590Z,12.05
2023-04-26T08:58:18.069Z,12.67
2023-04-26T09:00:46.034Z,12.42
2023-04-26T09:03:13.238Z,12.66
2023-04-26T09:05:44.305Z,12.62
2023-04-26T09:08:17.517Z,11.58
2023-04-26T09:10:44.145Z,11.93
2023-04-26T09:13:13.525Z,12.12
2023-04-26T09:15:40.344Z,12.48
2023-04-26T09:18:18.113Z,12.91
2023-04-26T09:20:45.797Z,13.28
2023-04-26T09:23:12.386Z,13.65
2023-04-26T09:25:39.648Z,13.15
2023-04-26T09:28:20.358Z,13.26
2023-04-26T09:30:46.985Z,13.55
2023-04-26T09:33:13.502Z,13.59
2023-04-26T09:35:42.611Z,14.24
2023-04-26T09:38:12.801Z,13.65
2023-04-26T09:40:42.447Z,13.79
2023-04-26T09:43:16.001Z,13.42
2023-04-26T09:45:56.984Z,13.32
2023-04-26T09:48:30.486Z,13.56
2023-04-26T09:51:19.375Z,13.02
2023-04-26T09:53:47.661Z,13.05
2023-04-26T09:56:18.796Z,12.93
2023-04-26T09:58:52.410Z,13.57
2023-04-26T10:01:20.130Z,13.47
2023-04-26T10:03:49.762Z,13.60
2023-04-26T10:06:16.899Z,13.72
2023-04-26T10:08:44.081Z,14.81
2023-04-26T10:11:11.546Z,13.73
2023-04-26T10:13:39.537Z,14.93
2023-04-26T10:16:07.554Z,14.66
2023-04-26T10:18:34.384Z,15.03
2023-04-26T10:21:19.876Z,15.64
2023-04-26T10:23:48.825Z,15.63
2023-04-26T10:26:48.705Z,16.12
2023-04-26T10:29:18.624Z,15.77
2023-04-26T10:32:06.730Z,15.67
2023-04-26T10:34:34.792Z,15.12
2023-04-26T10:37:18.073Z,15.23
2023-04-26T10:39:46.170Z,15.26
2023-04-26T10:42:26.515Z,15.25
2023-04-26T10:44:55.080Z,14.43
2023-04-26T10:47:28.630Z,15.05
2023-04-26T10:50:07.976Z,15.50
2023-04-26T10:52:36.005Z,15.48
2023-04-26T10:55:02.833Z,15.09
2023-04-26T10:57:50.321Z,15.92
2023-04-26T11:00:30.862Z,15.70
2023-04-26T11:03:02.761Z,15.39
2023-04-26T11:05:55.479Z,15.54
2023-04-26T11:08:30.694Z,15.75
2023-04-26T11:11:03.206Z,15.88
2023-04-26T11:13:33.827Z,15.39
2023-04-26T11:16:04.924Z,15.56
2023-04-26T11:18:36.380Z,15.37
2023-04-26T11:21:04.731Z,15.10
2023-04-26T11:23:31.901Z,15.70
2023-04-26T11:26:08.634Z,16.28
2023-04-26T11:28:37.179Z,16.58
2023-04-26T11:31:05.403Z,16.45
2023-04-26T11:33:34.051Z,16.08
2023-04-26T11:36:00.468Z,16.15
2023-04-26T11:38:28.732Z,16.70
2023-04-26T11:40:56.900Z,16.70
2023-04-26T11:43:30.433Z,16.57
2023-04-26T11:46:01.294Z,17.15
2023-04-26T11:48:30.023Z,17.16
2023-04-26T11:51:02.385Z,16.56
2023-04-26T11:53:37.511Z,17.36
2023-04-26T11:56:13.093Z,17.58
2023-04-26T11:58:39.525Z,17.00
2023-04-26T12:01:06.273Z,17.87
2023-04-26T12:03:35.451Z,17.60
2023-04-26T12:06:02.166Z,16.75
2023-04-26T12:08:28.676Z,16.26
2023-04-26T12:11:51.220Z,16.84
2023-04-26T12:14:17.716Z,16.52
2023-04-26T12:16:50.630Z,17.19
2023-04-26T12:19:28.977Z,16.84
2023-04-26T12:21:55.898Z,18.14
2023-04-26T12:24:24.847Z,17.83
2023-04-26T12:26:52.056Z,18.83
2023-04-26T12:29:18.739Z,17.94
2023-04-26T12:31:46.740Z,19.00
2023-04-26T12:34:13.389Z,18.49
2023-04-26T12:36:46.359Z,18.80
2023-04-26T12:39:14.372Z,18.69
2023-04-26T12:41:41.942Z,19.61
2023-04-26T12:44:09.031Z,19.29
2023-04-26T12:46:35.985Z,17.69
2023-04-26T12:49:03.589Z,17.34
2023-04-26T12:51:30.136Z,17.36
2023-04-26T12:53:56.884Z,16.65
2023-04-26T12:56:24.439Z,17.40
2023-04-26T12:58:51.043Z,16.68
2023-04-26T13:01:17.488Z,18.55
2023-04-26T13:03:44.368Z,18.42
2023-04-26T13:06:11.208Z,18.49
2023-04-26T13:08:37.582Z,18.89
2023-04-26T13:11:04.152Z,18.71
2023-04-26T13:13:42.139Z,18.28
2023-04-26T13:16:09.204Z,18.18
2023-04-26T13:18:36.108Z,17.62
2023-04-26T13:21:02.504Z,17.64
2023-04-26T13:23:29.046Z,18.35
2023-04-26T13:25:55.377Z,17.47
2023-04-26T13:28:21.752Z,17.79
2023-04-26T13:30:48.303Z,17.79
2023-04-26T13:33:14.676Z,17.79
2023-04-26T13:36:03.725Z,18.16
2023-04-26T13:38:32.750Z,18.19
2023-04-26T13:40:59.423Z,18.97
2023-04-26T13:43:25.938Z,19.08
2023-04-26T13:45:52.330Z,19.21
2023-04-26T13:48:18.811Z,19.51
2023-04-26T13:50:45.400Z,18.64
2023-04-26T13:53:11.736Z,17.33
2023-04-26T13:55:38.071Z,17.45
2023-04-26T13:58:04.415Z,17.07
2023-04-26T14:00:30.917Z,17.39
2023-04-26T14:02:57.448Z,17.21
2023-04-26T14:05:25.321Z,17.56
2023-04-26T14:07:53.630Z,16.90
2023-04-26T14:10:21.426Z,17.71
2023-04-26T14:12:47.836Z,17.43
2023-04-26T14:15:17.011Z,17.19
2023-04-26T14:17:43.513Z,17.34
2023-04-26T14:20:10.390Z,17.58
2023-04-26T14:22:36.895Z,17.93
2023-04-26T14:25:03.527Z,17.77
2023-04-26T14:27:29.893Z,17.96
2023-04-26T14:29:56.252Z,17.77
2023-04-26T14:32:23.315Z,17.79
2023-04-26T14:34:49.718Z,17.62
2023-04-26T14:37:16.120Z,17.71
2023-04-26T14:39:42.809Z,17.95
2023-04-26T14:42:09.226Z,17.52
2023-04-26T14:44:37.074Z,17.87
2023-04-26T14:47:03.457Z,17.40
2023-04-26T14:49:29.954Z,17.76
2023-04-26T14:51:56.333Z,17.22
2023-04-26T14:54:22.778Z,17.55
2023-04-26T14:56:49.260Z,17.93
2023-04-26T14:59:15.947Z,18.24
2023-04-26T15:01:42.460Z,19.21
2023-04-26T15:04:09.008Z,19.55
2023-04-26T15:06:35.508Z,18.81
2023-04-26T15:09:02.015Z,18.87
2023-04-26T15:11:28.521Z,18.77
2023-04-26T15:13:54.957Z,18.68
2023-04-26T15:16:21.716Z,18.59
2023-04-26T15:18:48.281Z,19.18
2023-04-26T15:21:18.743Z,18.83
2023-04-26T15:23:45.187Z,19.44
2023-04-26T15:26:11.962Z,19.54
2023-04-26T15:28:38.504Z,19.28
2023-04-26T15:31:07.775Z,19.02
2023-04-26T15:33:34.407Z,18.85
2023-04-26T15:36:00.775Z,19.10
2023-04-26T15:38:27.200Z,19.34
2023-04-26T15:40:56.459Z,19.05
2023-04-26T15:43:22.796Z,19.54
2023-04-26T15:45:49.525Z,19.04
2023-04-26T15:48:16.089Z,19.67
2023-04-26T15:50:42.704Z,19.39
2023-04-26T15:53:09.265Z,18.88
2023-04-26T15:55:35.796Z,19.35
2023-04-26T15:58:02.216Z,20.25
2023-04-26T16:00:28.589Z,20.52
2023-04-26T16:02:56.753Z,20.23
2023-04-26T16:05:23.244Z,19.84
2023-04-26T16:07:49.656Z,20.15
2023-04-26T16:10:16.271Z,20.68
2023-04-26T16:12:44.337Z,20.56
2023-04-26T16:15:11.064Z,20.92
2023-04-26T16:17:39.361Z,20.50
2023-04-26T16:20:07.792Z,20.60
2023-04-26T16:22:35.299Z,20.83
2023-04-26T16:25:03.925Z,19.99
2023-04-26T16:27:30.364Z,19.87
2023-04-26T16:30:34.025Z,20.38
2023-04-26T16:33:00.500Z,19.87
2023-04-26T16:35:26.953Z,18.91
2023-04-26T16:37:53.298Z,18.32
2023-04-26T16:40:19.742Z,17.90
2023-04-26T16:42:46.108Z,17.34
2023-04-26T16:45:15.515Z,17.47
2023-04-26T16:47:42.767Z,17.10
2023-04-26T16:50:09.543Z,17.39
2023-04-26T16:52:36.111Z,17.08
2023-04-26T16:55:02.847Z,16.63
2023-04-26T16:57:29.417Z,16.79
2023-04-26T16:59:55.830Z,16.68
2023-04-26T17:02:22.894Z,16.20
2023-04-26T17:04:50.238Z,16.49
2023-04-26T17:07:17.211Z,16.22
2023-04-26T17:09:43.589Z,15.96
2023-04-26T17:12:10.171Z,15.48
2023-04-26T17:14:36.533Z,16.29
2023-04-26T17:17:02.918Z,16.11
2023-04-26T17:19:29.243Z,15.59
2023-04-26T17:21:55.787Z,16.40
2023-04-26T17:24:22.239Z,16.10
2023-04-26T17:26:48.582Z,16.19
2023-04-26T17:29:14.909Z,16.28
2023-04-26T17:31:41.356Z,16.30
2023-04-26T17:34:07.689Z,16.11
2023-04-26T17:36:34.039Z,15.62
2023-04-26T17:39:00.611Z,15.81
2023-04-26T17:41:38.363Z,15.46
2023-04-26T17:44:04.780Z,15.59
2023-04-26T17:46:31.121Z,15.08
2023-04-26T17:48:59.628Z,15.48
2023-04-26T17:51:26.054Z,14.91
2023-04-26T17:53:52.402Z,15.48
2023-04-26T17:56:18.769Z,14.63
2023-04-26T17:59:02.982Z,14.58
2023-04-26T18:01:30.263Z,14.79
2023-04-26T18:03:56.923Z,14.92
2023-04-26T18:06:23.377Z,15.03
2023-04-26T18:08:49.810Z,14.30
2023-04-26T18:11:16.240Z,14.59
2023-04-26T18:13:42.642Z,13.96
2023-04-26T18:16:09.227Z,14.38
2023-04-26T18:18:35.644Z,14.38
2023-04-26T18:21:02.026Z,14.94
2023-04-26T18:23:28.377Z,15.10
2023-04-26T18:25:55.923Z,15.22
2023-04-26T18:28:22.574Z,14.93
2023-04-26T18:30:49.073Z,14.98
2023-04-26T18:33:15.610Z,14.16
2023-04-26T18:35:42.014Z,14.17
2023-04-26T18:38:08.374Z,15.14
2023-04-26T18:40:35.666Z,15.19
2023-04-26T18:43:02.039Z,15.10
2023-04-26T18:45:28.484Z,14.76
2023-04-26T18:47:55.466Z,15.24
2023-04-26T18:50:21.973Z,15.23
2023-04-26T18:52:48.574Z,14.68
2023-04-26T18:55:14.892Z,15.06
2023-04-26T18:57:41.293Z,15.07
2023-04-26T19:00:08.351Z,14.75
2023-04-26T19:02:36.367Z,14.76
2023-04-26T19:05:04.491Z,14.97
2023-04-26T19:07:31.149Z,14.97
2023-04-26T19:10:00.571Z,14.74
2023-04-26T19:12:27.457Z,14.45
2023-04-26T19:14:54.206Z,14.60
2023-04-26T19:17:20.729Z,14.00
2023-04-26T19:19:47.527Z,14.11
2023-04-26T19:22:13.906Z,14.05
2023-04-26T19:24:40.490Z,14.43
2023-04-26T19:27:06.869Z,14.50
2023-04-26T19:29:33.188Z,14.76
2023-04-26T19:31:59.969Z,14.72
2023-04-26T19:34:26.661Z,14.46
2023-04-26T19:36:53.018Z,14.35
2023-04-26T19:39:20.697Z,14.21
2023-04-26T19:41:48.343Z,14.02
2023-04-26T19:44:14.771Z,13.99
2023-04-26T19:46:41.500Z,14.02
2023-04-26T19:49:07.875Z,13.44
2023-04-26T19:51:34.247Z,14.10
2023-04-26T19:54:00.590Z,13.95
2023-04-26T19:56:26.967Z,14.29
2023-04-26T19:58:53.353Z,13.69
2023-04-26T20:01:19.937Z,14.37
2023-04-26T20:03:46.403Z,14.43
2023-04-26T20:06:13.951Z,14.35
2023-04-26T20:08:41.044Z,14.42
2023-04-26T20:11:10.249Z,13.84
2023-04-26T20:13:36.934Z,14.36
2023-04-26T20:16:03.654Z,14.42
2023-04-26T20:18:30.067Z,14.21
2023-04-26T20:20:56.401Z,14.44
2023-04-26T20:23:22.781Z,14.34
2023-04-26T20:25:50.850Z,14.39
2023-04-26T20:28:17.254Z,14.28
2023-04-26T20:30:43.649Z,14.28
2023-04-26T20:33:10.165Z,14.30
2023-04-26T20:35:36.643Z,14.26
2023-04-26T20:38:03.099Z,13.64
2023-04-26T20:40:29.453Z,14.07
2023-04-26T20:42:55.972Z,14.09
2023-04-26T20:45:22.386Z,14.00
2023-04-26T20:47:48.896Z,13.59
2023-04-26T20:50:15.243Z,13.90
2023-04-26T20:52:41.857Z,14.11
2023-04-26T20:55:08.742Z,14.30
2023-04-26T20:57:36.147Z,13.50
2023-04-26T21:00:03.339Z,14.07
2023-04-26T21:02:30.253Z,13.99
2023-04-26T21:04:56.846Z,14.08
2023-04-26T21:07:23.406Z,13.98
2023-04-26T21:09:49.836Z,14.14
2023-04-26T21:12:16.209Z,14.00
2023-04-26T21:14:45.590Z,13.92
2023-04-26T21:17:11.996Z,14.02
2023-04-26T21:19:38.316Z,14.06
2023-04-26T21:22:04.690Z,14.23
2023-04-26T21:24:31.068Z,14.17
2023-04-26T21:26:57.425Z,13.72
2023-04-26T21:29:23.816Z,14.36
2023-04-26T21:31:50.343Z,14.08
2023-04-26T21:34:16.699Z,13.98
2023-04-26T21:36:43.079Z,14.07
2023-04-26T21:39:10.030Z,14.26
2023-04-26T21:41:36.732Z,14.03
2023-04-26T21:44:03.239Z,13.97
2023-04-26T21:46:29.635Z,14.00
2023-04-26T21:48:56.592Z,13.74
2023-04-26T21:51:23.187Z,13.89
2023-04-26T21:53:49.599Z,13.35
2023-04-26T21:56:16.374Z,13.88
2023-04-26T21:58:42.839Z,13.62
2023-04-26T22:01:11.663Z,13.69
2023-04-26T22:03:38.306Z,13.51
2023-04-26T22:06:05.952Z,13.48
2023-04-26T22:08:32.362Z,13.73
2023-04-26T22:10:59.458Z,13.10
2023-04-26T22:13:26.068Z,13.61
2023-04-26T22:15:52.406Z,13.32
2023-04-26T22:18:18.847Z,13.45
2023-04-26T22:20:45.543Z,13.07
2023-04-26T22:23:11.995Z,13.31
2023-04-26T22:25:38.602Z,13.32
2023-04-26T22:28:05.152Z,13.30
2023-04-26T22:30:31.690Z,13.05
2023-04-26T22:32:59.646Z,13.22
2023-04-26T22:35:27.681Z,13.21
2023-04-26T22:37:55.306Z,13.18
2023-04-26T22:40:21.725Z,12.97
2023-04-26T22:42:48.163Z,12.81
2023-04-26T22:45:14.595Z,13.01
2023-04-26T22:47:41.466Z,12.76
2023-04-26T22:50:08.667Z,12.54
2023-04-26T22:52:35.728Z,13.06
2023-04-26T22:55:02.405Z,12.86
2023-04-26T22:57:29.441Z,12.68
2023-04-26T22:59:55.978Z,12.79
2023-04-26T23:02:23.307Z,12.80
2023-04-26T23:04:49.940Z,12.85
2023-04-26T23:07:16.445Z,12.51
2023-04-26T23:09:42.910Z,12.14
2023-04-26T23:12:09.767Z,12.72
2023-04-26T23:14:36.178Z,12.59
2023-04-26T23:17:02.960Z,12.66
2023-04-26T23:19:29.455Z,12.49
2023-04-26T23:21:55.874Z,12.35
2023-04-26T23:24:22.307Z,11.94
2023-04-26T23:26:48.695Z,12.39
2023-04-26T23:29:15.304Z,12.25
2023-04-26T23:31:42.149Z,12.32
2023-04-26T23:34:08.630Z,12.27
2023-04-26T23:36:35.233Z,11.59
2023-04-26T23:39:01.600Z,11.38
2023-04-26T23:41:27.956Z,11.72
2023-04-26T23:43:54.368Z,12.08
2023-04-26T23:46:20.953Z,11.98
2023-04-26T23:48:47.293Z,11.51
2023-04-26T23:51:13.738Z,11.85
2023-04-26T23:53:40.209Z,11.20
2023-04-26T23:56:07.324Z,11.64
2023-04-26T23:58:33.804Z,11.46
